Terminal Aerodrome Forecast
Issued by NWS

Home | Current Version | Previous Version | Text Only | Print | Product List | Glossary On
Versions: 1 2 3 4 5 6 7 8 9 10 11 12 13 14 15 16 17 18 19 20 21 22 23 24 25 26 27 28 29 30 31 32 33 34 35 36 37 38 39 40 41 42 43 44 45 46 47 48 49 50
000
FTUS45 KBOU 261929 AAA
TAFAPA
TAF AMD
KAPA 261929Z 2619/2718 35012KT P6SM VCSH SCT080 BKN140
      TEMPO 2619/2621 VRB18G28KT
     FM262100 35012KT P6SM SCT080 BKN140
     FM270200 08009KT P6SM BKN080 BKN140
     FM270600 18007KT P6SM BKN080 BKN120 PROB30 2712/2716 -SHRA=

USA.gov is the U.S. government's official web portal to all federal, state and local government web resources and services.